Time;durP1;ratioP1;P1;durP2;ratioP2;P2;SDS_P1;SDS_P2;PMS_P1;PMS_P2;Temp;Humidity;BMP_temperature;BMP_pressure;BME280_temperature;BME280_humidity;BME280_pressure;Samples;Min_cycle;Max_cycle;Signal;HPM_P1;HPM_P2
2021/01/09 00:00:36;;;;;;;10.07;6.13;;;3.50;99.90;;;;;;4147353;28;20501;-69
2021/01/09 00:02:38;;;;;;;9.13;6.18;;;3.50;99.90;;;;;;4145140;28;20044;-69
2021/01/09 00:04:40;;;;;;;8.63;5.72;;;3.50;99.90;;;;;;4146317;28;20037;-69
2021/01/09 00:06:41;;;;;;;8.23;5.72;;;3.50;99.90;;;;;;4146986;28;20045;-70
2021/01/09 00:08:42;;;;;;;8.50;5.55;;;3.50;99.90;;;;;;4145388;28;20041;-70
2021/01/09 00:10:42;;;;;;;8.82;5.50;;;3.50;99.90;;;;;;4150891;28;20041;-69
2021/01/09 00:12:44;;;;;;;7.88;5.32;;;3.50;99.90;;;;;;4148315;28;20028;-70
2021/01/09 00:14:45;;;;;;;8.95;5.65;;;3.50;99.90;;;;;;4148472;28;20038;-70
2021/01/09 00:16:47;;;;;;;8.02;5.82;;;3.50;99.90;;;;;;4148336;28;20124;-70
2021/01/09 00:18:47;;;;;;;9.07;5.50;;;3.50;99.90;;;;;;4150164;28;20049;-69
2021/01/09 00:20:48;;;;;;;8.38;5.80;;;3.50;99.90;;;;;;4147847;28;20504;-70
2021/01/09 00:22:49;;;;;;;8.20;5.40;;;3.50;99.90;;;;;;4146760;28;20028;-70
2021/01/09 00:24:50;;;;;;;8.20;5.80;;;3.50;99.90;;;;;;4148256;28;20057;-69
2021/01/09 00:26:50;;;;;;;10.68;6.95;;;3.50;99.90;;;;;;4148661;28;20041;-69
2021/01/09 00:28:51;;;;;;;9.45;6.35;;;3.50;99.90;;;;;;4148661;28;20030;-70
2021/01/09 00:30:52;;;;;;;9.63;6.32;;;3.50;99.90;;;;;;4150603;28;20025;-69
2021/01/09 00:32:52;;;;;;;11.65;6.75;;;3.50;99.90;;;;;;4146515;28;20264;-70
2021/01/09 00:34:53;;;;;;;10.40;6.18;;;3.50;99.90;;;;;;4150694;28;20064;-70
2021/01/09 00:36:53;;;;;;;12.18;7.28;;;3.40;99.90;;;;;;4145739;28;20452;-69
2021/01/09 00:38:54;;;;;;;9.48;6.05;;;3.40;99.90;;;;;;4148326;28;20037;-69
2021/01/09 00:40:55;;;;;;;9.35;5.82;;;3.40;99.90;;;;;;4149893;28;20049;-70
2021/01/09 00:42:55;;;;;;;10.35;6.68;;;3.40;99.90;;;;;;4147445;28;20199;-70
2021/01/09 00:44:56;;;;;;;12.13;7.15;;;3.40;99.90;;;;;;4147524;28;20351;-70
2021/01/09 00:46:58;;;;;;;10.60;6.50;;;3.50;99.90;;;;;;4148973;28;20422;-70
2021/01/09 00:48:59;;;;;;;10.13;6.07;;;3.40;99.90;;;;;;4150592;28;20053;-69
2021/01/09 00:50:59;;;;;;;10.48;6.47;;;3.40;99.90;;;;;;4148652;28;20022;-69
2021/01/09 00:53:00;;;;;;;9.27;5.70;;;3.40;99.90;;;;;;4148704;28;20363;-69
2021/01/09 00:55:00;;;;;;;11.18;6.80;;;3.40;99.90;;;;;;4149599;28;20046;-69
2021/01/09 00:57:01;;;;;;;10.68;6.63;;;3.40;99.90;;;;;;4144806;28;20498;-69
2021/01/09 00:59:02;;;;;;;11.13;6.88;;;3.40;99.90;;;;;;4147359;28;20382;-69
2021/01/09 01:01:03;;;;;;;10.77;6.80;;;3.40;99.90;;;;;;4150703;28;20041;-69
2021/01/09 01:03:04;;;;;;;11.05;6.60;;;3.40;99.90;;;;;;4147585;28;20374;-69
2021/01/09 01:05:05;;;;;;;12.40;7.28;;;3.40;99.90;;;;;;4147240;28;20510;-69
2021/01/09 01:07:06;;;;;;;8.15;5.72;;;3.40;99.90;;;;;;4150821;28;20114;-69
2021/01/09 01:09:06;;;;;;;9.75;6.13;;;3.40;99.90;;;;;;4149308;28;20038;-69
2021/01/09 01:11:09;;;;;;;11.73;6.60;;;3.40;99.90;;;;;;4147646;28;20117;-69
2021/01/09 01:13:09;;;;;;;11.38;6.57;;;3.40;99.90;;;;;;4143165;28;20492;-69
2021/01/09 01:15:10;;;;;;;11.15;7.15;;;3.40;99.90;;;;;;4149006;28;20042;-69
2021/01/09 01:17:11;;;;;;;13.23;6.78;;;3.40;99.90;;;;;;4150289;28;20037;-69
2021/01/09 01:19:12;;;;;;;9.85;6.03;;;3.40;99.90;;;;;;4145007;28;20046;-69
2021/01/09 01:21:12;;;;;;;9.30;5.82;;;3.40;99.90;;;;;;4148461;28;20026;-70
2021/01/09 01:23:13;;;;;;;11.02;6.43;;;3.40;99.90;;;;;;4143601;28;20040;-70
2021/01/09 01:25:13;;;;;;;10.30;6.40;;;3.40;99.90;;;;;;4147569;28;20599;-70
2021/01/09 01:27:14;;;;;;;10.98;6.88;;;3.40;99.90;;;;;;4147964;28;20042;-69
2021/01/09 01:29:15;;;;;;;11.35;6.90;;;3.40;99.90;;;;;;4147354;28;20042;-70
2021/01/09 01:31:15;;;;;;;9.40;5.82;;;3.40;99.90;;;;;;4147088;28;20146;-70
2021/01/09 01:33:16;;;;;;;12.45;6.78;;;3.40;99.90;;;;;;4139231;28;20579;-69
2021/01/09 01:35:17;;;;;;;9.80;6.30;;;3.40;99.90;;;;;;4147066;28;20104;-69
2021/01/09 01:37:17;;;;;;;10.68;6.40;;;3.40;99.90;;;;;;4149060;28;20029;-69
2021/01/09 01:39:18;;;;;;;8.98;5.80;;;3.40;99.90;;;;;;4146464;28;20042;-70
2021/01/09 01:41:19;;;;;;;9.13;5.60;;;3.40;99.90;;;;;;4145818;28;20033;-69
2021/01/09 01:43:19;;;;;;;8.27;5.22;;;3.40;99.90;;;;;;4146254;28;20030;-69
2021/01/09 01:45:20;;;;;;;7.80;4.97;;;3.50;99.90;;;;;;4145650;28;20042;-69
2021/01/09 01:47:21;;;;;;;8.98;5.68;;;3.40;99.90;;;;;;4146825;28;20148;-69
2021/01/09 01:49:21;;;;;;;7.85;5.20;;;3.40;99.90;;;;;;4144084;28;20252;-69
2021/01/09 01:51:22;;;;;;;8.10;5.20;;;3.40;99.90;;;;;;4145511;28;20397;-69
2021/01/09 01:53:23;;;;;;;8.10;4.88;;;3.40;99.90;;;;;;4146955;28;20048;-70
2021/01/09 01:55:24;;;;;;;7.15;5.00;;;3.40;99.90;;;;;;4147004;28;20045;-69
2021/01/09 01:57:25;;;;;;;7.45;4.68;;;3.40;99.90;;;;;;4145867;28;20033;-69
2021/01/09 01:59:25;;;;;;;9.13;5.38;;;3.50;99.90;;;;;;4145026;28;20054;-69
2021/01/09 02:01:27;;;;;;;8.48;4.88;;;3.50;99.90;;;;;;4141832;28;20034;-70
2021/01/09 02:03:28;;;;;;;8.13;5.40;;;3.50;99.90;;;;;;4139418;28;20096;-69
2021/01/09 02:05:36;;;;;;;9.85;5.38;;;3.50;99.90;;;;;;4139620;28;20530;-69
2021/01/09 02:07:41;;;;;;;8.40;5.20;;;3.50;99.90;;;;;;4140041;28;20034;-69
2021/01/09 02:09:45;;;;;;;7.20;5.15;;;3.50;99.90;;;;;;4142006;28;20280;-70
2021/01/09 02:11:54;;;;;;;8.27;5.10;;;3.50;99.90;;;;;;4139910;28;20109;-70
2021/01/09 02:14:00;;;;;;;6.13;4.05;;;3.50;99.90;;;;;;4139840;28;20034;-69
2021/01/09 02:16:03;;;;;;;6.50;4.72;;;3.50;99.90;;;;;;4139305;28;20176;-69
2021/01/09 02:18:05;;;;;;;6.43;4.63;;;3.50;99.90;;;;;;4127130;28;20430;-69
2021/01/09 02:20:07;;;;;;;6.07;4.28;;;3.50;99.90;;;;;;4140432;28;20088;-69
2021/01/09 02:22:13;;;;;;;7.85;4.85;;;3.60;99.90;;;;;;4142178;28;20061;-69
2021/01/09 02:24:16;;;;;;;7.78;5.00;;;3.50;99.90;;;;;;4133545;28;20030;-69
2021/01/09 02:26:16;;;;;;;8.30;4.97;;;3.60;99.90;;;;;;4140298;28;20129;-69
2021/01/09 02:28:17;;;;;;;9.15;5.70;;;3.50;99.90;;;;;;4143736;28;20458;-69
2021/01/09 02:30:40;;;;;;;8.07;5.30;;;3.50;99.90;;;;;;4147168;28;20453;-70
2021/01/09 02:33:03;;;;;;;9.57;5.80;;;3.50;99.90;;;;;;4144589;28;20034;-69
2021/01/09 02:35:05;;;;;;;9.88;5.78;;;3.50;99.90;;;;;;4143138;28;20029;-70
2021/01/09 02:37:07;;;;;;;11.02;6.28;;;3.50;99.90;;;;;;4144014;28;20044;-69
2021/01/09 02:39:08;;;;;;;7.77;5.03;;;3.50;99.90;;;;;;4145665;28;20030;-69
2021/01/09 02:41:12;;;;;;;7.72;5.25;;;3.50;99.90;;;;;;4142796;28;20030;-70
2021/01/09 02:43:13;;;;;;;9.38;4.70;;;3.50;99.90;;;;;;4149319;28;20109;-69
2021/01/09 02:45:14;;;;;;;8.32;5.15;;;3.50;99.90;;;;;;4146472;28;20030;-70
2021/01/09 02:47:15;;;;;;;10.70;6.13;;;3.50;99.90;;;;;;4144100;28;20033;-69
2021/01/09 02:49:16;;;;;;;9.35;6.10;;;3.50;99.90;;;;;;4145742;28;20288;-69
2021/01/09 02:51:17;;;;;;;7.35;5.15;;;3.50;99.90;;;;;;4144668;28;20096;-69
2021/01/09 02:53:17;;;;;;;9.10;5.72;;;3.50;99.90;;;;;;4150968;28;20048;-70
2021/01/09 02:55:18;;;;;;;8.93;5.53;;;3.50;99.90;;;;;;4144826;28;20125;-69
2021/01/09 02:57:18;;;;;;;8.52;5.72;;;3.50;99.90;;;;;;4144854;28;20030;-70
2021/01/09 02:59:19;;;;;;;8.07;5.00;;;3.50;99.90;;;;;;4140180;28;20040;-69
2021/01/09 03:01:19;;;;;;;9.43;6.07;;;3.50;99.90;;;;;;4142921;28;20076;-69
2021/01/09 03:03:20;;;;;;;8.85;5.90;;;3.40;99.90;;;;;;4144834;28;20041;-70
2021/01/09 03:05:21;;;;;;;9.38;5.90;;;3.40;99.90;;;;;;4143697;28;20052;-69
2021/01/09 03:07:21;;;;;;;8.38;5.38;;;3.40;99.90;;;;;;4144538;28;20169;-69
2021/01/09 03:09:22;;;;;;;7.82;5.28;;;3.40;99.90;;;;;;4143618;28;20524;-69
2021/01/09 03:11:22;;;;;;;7.13;5.15;;;3.30;99.90;;;;;;4143440;28;20068;-69
2021/01/09 03:13:23;;;;;;;7.80;4.97;;;3.30;99.90;;;;;;4136660;28;20053;-69
2021/01/09 03:15:23;;;;;;;8.13;5.53;;;3.30;99.90;;;;;;4145336;28;20124;-69
2021/01/09 03:17:25;;;;;;;7.72;5.03;;;3.30;99.90;;;;;;4142324;28;20038;-70
2021/01/09 03:19:25;;;;;;;8.23;5.30;;;3.30;99.90;;;;;;4143458;28;20053;-69
2021/01/09 03:21:26;;;;;;;9.52;6.47;;;3.30;99.90;;;;;;4143867;28;20568;-69
2021/01/09 03:23:26;;;;;;;8.85;5.68;;;3.30;99.90;;;;;;4141967;28;20120;-69
2021/01/09 03:25:27;;;;;;;8.35;5.25;;;3.30;99.90;;;;;;4144322;28;20053;-69
2021/01/09 03:27:27;;;;;;;8.43;5.20;;;3.40;99.90;;;;;;4143860;28;20038;-70
2021/01/09 03:29:28;;;;;;;6.75;4.53;;;3.30;99.90;;;;;;4143813;28;20061;-69
2021/01/09 03:31:28;;;;;;;7.53;5.15;;;3.30;99.90;;;;;;4142345;28;20084;-69
2021/01/09 03:33:29;;;;;;;7.90;5.10;;;3.30;99.90;;;;;;4141501;28;20061;-69
2021/01/09 03:35:30;;;;;;;9.15;5.50;;;3.30;99.90;;;;;;4127345;28;20065;-69
2021/01/09 03:37:30;;;;;;;8.45;4.97;;;3.30;99.90;;;;;;4141779;28;20042;-69
2021/01/09 03:39:31;;;;;;;8.75;5.03;;;3.30;99.90;;;;;;4142923;28;20501;-69
2021/01/09 03:41:31;;;;;;;8.82;5.82;;;3.30;99.90;;;;;;4142201;28;20104;-69
2021/01/09 03:43:32;;;;;;;8.07;5.35;;;3.30;99.90;;;;;;4141821;28;20041;-69
2021/01/09 03:45:33;;;;;;;8.50;5.50;;;3.20;99.90;;;;;;4142493;28;20120;-69
2021/01/09 03:47:34;;;;;;;10.25;6.30;;;3.30;99.90;;;;;;4142488;28;20418;-69
2021/01/09 03:49:34;;;;;;;9.25;5.85;;;3.20;99.90;;;;;;4147330;28;20038;-69
2021/01/09 03:51:35;;;;;;;10.93;5.85;;;3.20;99.90;;;;;;4141886;28;20068;-69
2021/01/09 03:53:35;;;;;;;9.00;6.10;;;3.20;99.90;;;;;;4141752;28;20042;-70
2021/01/09 03:55:36;;;;;;;8.02;5.32;;;3.20;99.90;;;;;;4143715;28;20041;-69
2021/01/09 03:57:37;;;;;;;8.43;5.32;;;3.20;99.90;;;;;;4135579;28;20033;-69
2021/01/09 03:59:37;;;;;;;7.78;5.47;;;3.20;99.90;;;;;;4144161;28;20540;-69
2021/01/09 04:01:38;;;;;;;9.73;5.22;;;3.20;99.90;;;;;;4143108;28;20452;-69
2021/01/09 04:03:39;;;;;;;7.07;4.70;;;3.20;99.90;;;;;;4143974;28;20037;-69
2021/01/09 04:05:39;;;;;;;7.88;4.93;;;3.20;99.90;;;;;;4147995;28;20041;-69
2021/01/09 04:07:40;;;;;;;7.80;5.00;;;3.20;99.90;;;;;;4142269;28;20581;-69
2021/01/09 04:09:40;;;;;;;6.22;4.47;;;3.20;99.90;;;;;;4142608;28;20474;-69
2021/01/09 04:11:41;;;;;;;7.80;4.78;;;3.20;99.90;;;;;;4142361;28;20079;-69
2021/01/09 04:13:42;;;;;;;6.57;4.65;;;3.20;99.90;;;;;;4143589;28;20030;-69
2021/01/09 04:15:42;;;;;;;6.05;4.18;;;3.20;99.90;;;;;;4142427;28;20521;-70
2021/01/09 04:17:43;;;;;;;7.55;4.78;;;3.20;99.90;;;;;;4145606;28;20117;-69
2021/01/09 04:19:43;;;;;;;6.90;4.97;;;3.20;99.90;;;;;;4146106;28;20049;-69
2021/01/09 04:21:52;;;;;;;7.05;4.55;;;3.20;99.90;;;;;;4142005;28;20044;-70
2021/01/09 04:23:54;;;;;;;8.02;4.35;;;3.20;99.90;;;;;;4143685;28;20030;-69
2021/01/09 04:25:55;;;;;;;8.45;4.70;;;3.20;99.90;;;;;;4142840;28;20150;-69
2021/01/09 04:27:55;;;;;;;8.73;4.82;;;3.30;99.90;;;;;;4143031;28;20383;-70
2021/01/09 04:29:57;;;;;;;7.78;4.43;;;3.20;99.90;;;;;;4159792;28;20029;-69
2021/01/09 04:31:57;;;;;;;6.28;4.20;;;3.20;99.90;;;;;;4141086;28;20042;-70
2021/01/09 04:33:58;;;;;;;9.05;5.22;;;3.20;99.90;;;;;;4146873;28;20611;-69
2021/01/09 04:35:59;;;;;;;6.68;4.32;;;3.30;99.90;;;;;;4148086;28;20068;-70
2021/01/09 04:37:59;;;;;;;6.80;4.40;;;3.20;99.90;;;;;;4149157;28;20104;-69
2021/01/09 04:40:03;;;;;;;7.57;4.90;;;3.20;99.90;;;;;;4150789;28;20040;-70
2021/01/09 04:42:04;;;;;;;8.15;4.70;;;3.20;99.90;;;;;;4146697;28;20040;-69
2021/01/09 04:44:06;;;;;;;8.68;5.22;;;3.20;99.90;;;;;;4145419;28;20133;-69
2021/01/09 04:46:08;;;;;;;6.80;4.65;;;3.20;99.90;;;;;;4142151;28;20050;-70
2021/01/09 04:48:09;;;;;;;8.05;4.82;;;3.20;99.90;;;;;;4145809;28;20654;-69
2021/01/09 04:50:10;;;;;;;8.57;5.40;;;3.20;99.90;;;;;;4152962;28;20036;-69
2021/01/09 04:52:12;;;;;;;6.50;4.65;;;3.20;99.90;;;;;;4147354;28;20096;-70
2021/01/09 04:54:15;;;;;;;7.37;5.37;;;3.20;99.90;;;;;;4147536;28;20154;-69
2021/01/09 04:56:16;;;;;;;9.05;5.60;;;3.20;99.90;;;;;;4146154;28;20311;-70
2021/01/09 04:58:17;;;;;;;8.77;5.78;;;3.20;99.90;;;;;;4149359;28;20068;-70
2021/01/09 05:00:18;;;;;;;10.25;5.65;;;3.10;99.90;;;;;;4150627;28;20037;-70
2021/01/09 05:02:19;;;;;;;7.45;5.03;;;3.20;99.90;;;;;;4146077;28;20453;-70
2021/01/09 05:04:20;;;;;;;9.55;5.53;;;3.20;99.90;;;;;;4151324;28;20437;-70
2021/01/09 05:06:21;;;;;;;7.75;5.55;;;3.10;99.90;;;;;;4144357;28;20125;-70
2021/01/09 05:08:21;;;;;;;8.13;5.45;;;3.10;99.90;;;;;;4147005;28;20037;-70
2021/01/09 05:10:23;;;;;;;8.40;5.60;;;3.10;99.90;;;;;;4149662;28;20108;-70
2021/01/09 05:12:23;;;;;;;9.70;5.55;;;3.10;99.90;;;;;;4145243;28;20060;-70
2021/01/09 05:14:27;;;;;;;7.60;5.13;;;3.10;99.90;;;;;;4143372;28;20716;-70
2021/01/09 05:16:27;;;;;;;9.60;5.68;;;3.10;99.90;;;;;;4147812;28;20049;-70
2021/01/09 05:18:30;;;;;;;9.88;6.20;;;3.20;99.90;;;;;;4149374;28;20054;-70
2021/01/09 05:20:32;;;;;;;8.05;5.20;;;3.10;99.90;;;;;;4149949;28;20029;-70
2021/01/09 05:22:36;;;;;;;9.85;6.03;;;3.10;99.90;;;;;;4147016;28;20128;-70
2021/01/09 05:24:37;;;;;;;8.10;5.60;;;3.10;99.90;;;;;;4149207;28;20040;-70
2021/01/09 05:26:37;;;;;;;8.13;5.32;;;3.20;99.90;;;;;;4147849;28;20037;-70
2021/01/09 05:28:40;;;;;;;8.15;4.60;;;3.20;99.90;;;;;;4147047;28;20172;-70
2021/01/09 05:30:41;;;;;;;7.47;4.80;;;3.10;99.90;;;;;;4149636;28;20044;-70
2021/01/09 05:32:43;;;;;;;8.52;5.07;;;3.10;99.90;;;;;;4147242;28;20034;-70
2021/01/09 05:34:52;;;;;;;9.10;4.68;;;3.10;99.90;;;;;;4151454;28;20030;-70
2021/01/09 05:36:53;;;;;;;8.38;4.72;;;3.10;99.90;;;;;;4147022;28;20116;-70
2021/01/09 05:38:54;;;;;;;8.20;5.75;;;3.10;99.90;;;;;;4147884;28;20026;-70
2021/01/09 05:41:03;;;;;;;7.72;4.97;;;3.10;99.90;;;;;;4145084;28;20041;-70
2021/01/09 05:43:08;;;;;;;9.63;5.25;;;3.10;99.90;;;;;;4145560;28;20402;-70
2021/01/09 05:45:11;;;;;;;8.02;4.93;;;3.10;99.90;;;;;;4150228;28;20124;-70
2021/01/09 05:47:13;;;;;;;7.40;4.57;;;3.10;99.90;;;;;;4148713;28;20026;-70
2021/01/09 05:49:13;;;;;;;8.40;5.07;;;3.10;99.90;;;;;;4147225;28;20022;-70
2021/01/09 05:51:14;;;;;;;10.35;5.15;;;3.10;99.90;;;;;;4148923;28;20109;-70
2021/01/09 05:53:42;;;;;;;7.45;4.75;;;3.00;99.90;;;;;;4147533;28;20047;-70
2021/01/09 05:55:46;;;;;;;8.52;4.75;;;3.10;99.90;;;;;;4146257;28;20432;-70
2021/01/09 05:57:47;;;;;;;6.95;4.32;;;3.10;99.90;;;;;;4147699;28;20097;-70
2021/01/09 05:59:49;;;;;;;6.80;3.88;;;3.10;99.90;;;;;;4147849;28;20033;-70
2021/01/09 06:01:54;;;;;;;7.13;4.72;;;3.10;99.90;;;;;;4146283;28;20092;-70
2021/01/09 06:04:05;;;;;;;6.55;4.40;;;3.10;99.90;;;;;;4148035;28;20048;-70
2021/01/09 06:06:29;;;;;;;7.20;4.65;;;3.10;99.90;;;;;;4142412;28;20045;-70
2021/01/09 06:08:31;;;;;;;7.53;5.35;;;3.10;99.90;;;;;;4144839;28;20402;-70
2021/01/09 06:10:37;;;;;;;11.70;5.93;;;3.10;99.90;;;;;;4148345;28;20030;-70
2021/01/09 06:12:59;;;;;;;8.70;5.07;;;3.10;99.90;;;;;;4145715;28;20041;-70
2021/01/09 06:15:03;;;;;;;9.47;5.67;;;3.10;99.90;;;;;;4146751;28;20038;-70
2021/01/09 06:17:03;;;;;;;9.23;5.53;;;3.10;99.90;;;;;;4144630;28;20268;-70
2021/01/09 06:19:05;;;;;;;7.93;5.38;;;3.10;99.90;;;;;;4146529;28;20509;-70
2021/01/09 06:21:08;;;;;;;9.80;5.60;;;3.10;99.90;;;;;;4142455;28;20034;-70
2021/01/09 06:23:09;;;;;;;7.93;4.93;;;3.10;99.90;;;;;;4135894;28;20370;-70
2021/01/09 06:25:11;;;;;;;11.63;6.70;;;3.10;99.90;;;;;;4147929;28;20034;-70
2021/01/09 06:27:20;;;;;;;10.50;5.85;;;3.10;99.90;;;;;;4148272;28;20044;-70
2021/01/09 06:29:22;;;;;;;8.70;5.68;;;3.10;99.90;;;;;;4148523;28;20057;-70
2021/01/09 06:31:25;;;;;;;;;;;3.10;99.90;;;;;;4128017;28;20077;-70
2021/01/09 06:33:31;;;;;;;8.88;5.45;;;3.10;99.90;;;;;;4145196;28;19917;-71
2021/01/09 06:35:33;;;;;;;9.23;5.18;;;3.00;99.90;;;;;;4149435;28;20046;-71
2021/01/09 06:37:54;;;;;;;9.50;5.15;;;3.00;99.90;;;;;;4119733;28;20034;-70
2021/01/09 06:39:56;;;;;;;14.25;6.53;;;3.00;99.90;;;;;;4146550;28;20026;-70
2021/01/09 06:42:00;;;;;;;11.18;6.32;;;3.00;99.90;;;;;;4145573;28;20048;-71
2021/01/09 06:44:06;;;;;;;14.13;7.65;;;3.00;99.90;;;;;;4147819;28;20105;-70
2021/01/09 06:46:07;;;;;;;13.55;8.18;;;3.00;99.90;;;;;;4141522;28;20045;-71
2021/01/09 06:48:10;;;;;;;16.85;8.48;;;3.00;99.90;;;;;;4142084;28;20036;-70
2021/01/09 06:50:26;;;;;;;17.52;9.60;;;3.00;99.90;;;;;;4144440;28;20030;-71
2021/01/09 06:52:52;;;;;;;15.45;9.02;;;3.00;99.90;;;;;;4146001;28;20038;-71
2021/01/09 06:54:52;;;;;;;13.73;8.25;;;3.00;99.90;;;;;;4148754;28;20311;-71
2021/01/09 06:57:02;;;;;;;12.30;7.85;;;3.00;99.90;;;;;;4148810;28;20128;-71
2021/01/09 06:59:02;;;;;;;13.18;8.40;;;3.00;99.90;;;;;;4141923;28;20593;-71
2021/01/09 07:01:36;;;;;;;12.80;7.97;;;3.00;99.90;;;;;;4143434;28;20053;-71
2021/01/09 07:03:43;;;;;;;;;;;3.00;99.90;;;;;;4144260;28;20030;-71
2021/01/09 07:05:49;;;;;;;11.82;7.28;;;3.00;99.90;;;;;;4141904;28;20079;-71
2021/01/09 07:07:56;;;;;;;15.93;8.27;;;2.90;99.90;;;;;;4146535;28;20481;-72
2021/01/09 07:10:06;;;;;;;14.15;7.90;;;2.90;99.90;;;;;;4145688;28;20436;-73
2021/01/09 07:12:08;;;;;;;13.13;7.60;;;2.90;99.90;;;;;;4144624;28;20140;-73
2021/01/09 07:14:15;;;;;;;15.40;8.90;;;2.90;99.90;;;;;;4146222;28;20042;-73
2021/01/09 07:16:17;;;;;;;12.30;7.25;;;2.80;99.90;;;;;;4150051;28;20048;-72
2021/01/09 07:18:20;;;;;;;10.10;6.68;;;2.80;99.90;;;;;;4148697;28;20445;-72
2021/01/09 07:20:23;;;;;;;9.32;6.15;;;2.80;99.90;;;;;;4143255;28;20038;-72
2021/01/09 07:22:26;;;;;;;11.13;7.20;;;2.80;99.90;;;;;;4144218;28;20042;-72
2021/01/09 07:24:29;;;;;;;12.20;7.25;;;2.70;99.90;;;;;;4148401;28;20064;-73
2021/01/09 07:26:30;;;;;;;10.93;6.72;;;2.70;99.90;;;;;;4150282;28;20033;-72
2021/01/09 07:28:35;;;;;;;10.77;6.43;;;2.70;99.90;;;;;;4147754;28;20464;-72
2021/01/09 07:30:37;;;;;;;13.00;8.35;;;2.70;99.90;;;;;;4146681;28;20128;-72
2021/01/09 07:32:50;;;;;;;12.03;7.20;;;2.60;99.90;;;;;;4143753;28;20136;-72
2021/01/09 07:34:53;;;;;;;12.63;6.97;;;2.60;99.90;;;;;;4144546;28;20328;-73
2021/01/09 07:36:54;;;;;;;10.35;6.90;;;2.60;99.90;;;;;;4148749;28;20038;-72
2021/01/09 07:39:04;;;;;;;9.40;6.05;;;2.60;99.90;;;;;;4123131;28;20031;-73
2021/01/09 07:41:06;;;;;;;9.23;6.05;;;2.60;99.90;;;;;;4142686;28;20478;-72
2021/01/09 07:43:33;;;;;;;8.30;5.55;;;2.60;99.90;;;;;;4143267;28;20350;-72
2021/01/09 07:45:34;;;;;;;10.98;5.78;;;2.50;99.90;;;;;;4151401;28;20037;-73
2021/01/09 07:47:43;;;;;;;8.35;5.45;;;2.40;99.90;;;;;;4142569;28;20083;-73
2021/01/09 07:49:54;;;;;;;6.95;5.20;;;2.40;99.90;;;;;;4144222;28;20037;-73
2021/01/09 07:52:02;;;;;;;6.50;4.45;;;2.40;99.90;;;;;;4141030;28;20076;-72
2021/01/09 07:54:04;;;;;;;6.38;4.28;;;2.40;99.90;;;;;;4139977;28;20122;-72
2021/01/09 07:56:05;;;;;;;7.63;4.93;;;2.40;99.90;;;;;;4148681;28;20061;-73
2021/01/09 07:58:06;;;;;;;7.65;4.82;;;2.40;99.90;;;;;;4141620;28;20486;-72
2021/01/09 08:00:09;;;;;;;9.70;6.32;;;2.30;99.90;;;;;;4143778;28;20030;-73
2021/01/09 08:02:10;;;;;;;11.60;7.03;;;2.30;99.90;;;;;;4146399;28;20117;-72
2021/01/09 08:04:11;;;;;;;8.00;5.90;;;2.30;99.90;;;;;;4145593;28;20076;-72
2021/01/09 08:06:12;;;;;;;9.20;5.38;;;2.30;99.90;;;;;;4148167;28;20034;-73
2021/01/09 08:08:14;;;;;;;9.77;6.28;;;2.30;99.90;;;;;;4148109;28;20099;-73
2021/01/09 08:10:19;;;;;;;13.15;7.05;;;2.40;99.90;;;;;;4148938;28;20458;-73
2021/01/09 08:12:27;;;;;;;10.63;7.20;;;2.30;99.90;;;;;;4151850;28;20045;-72
2021/01/09 08:14:28;;;;;;;9.95;6.90;;;2.40;99.90;;;;;;4149215;28;20076;-72
2021/01/09 08:16:29;;;;;;;11.82;6.97;;;2.40;99.90;;;;;;4148364;28;20402;-72
2021/01/09 08:18:29;;;;;;;8.63;5.55;;;2.30;99.90;;;;;;4150513;28;20030;-74
2021/01/09 08:20:30;;;;;;;9.40;5.95;;;2.40;99.90;;;;;;4148570;28;20121;-72
2021/01/09 08:22:31;;;;;;;9.65;5.88;;;2.40;99.90;;;;;;4147891;28;20034;-72
2021/01/09 08:24:32;;;;;;;9.60;6.70;;;2.40;99.90;;;;;;4126967;28;20037;-72
2021/01/09 08:26:32;;;;;;;12.35;7.90;;;2.40;99.90;;;;;;4147305;28;20034;-72
2021/01/09 08:28:33;;;;;;;10.65;6.38;;;2.40;99.90;;;;;;4145787;28;20030;-72
2021/01/09 08:30:36;;;;;;;10.05;6.07;;;2.40;99.90;;;;;;4149381;28;20094;-72
2021/01/09 08:32:39;;;;;;;8.80;6.15;;;2.40;99.90;;;;;;4151788;28;20030;-72
2021/01/09 08:34:47;;;;;;;10.63;6.72;;;2.40;99.90;;;;;;4150583;28;20103;-72
2021/01/09 08:36:52;;;;;;;11.50;7.00;;;2.30;99.90;;;;;;4142613;28;20116;-72
2021/01/09 08:38:53;;;;;;;11.38;6.70;;;2.30;99.90;;;;;;4142626;28;20045;-72
2021/01/09 08:40:58;;;;;;;10.48;6.68;;;2.30;99.90;;;;;;4147149;28;20053;-72
2021/01/09 08:43:07;;;;;;;12.82;7.60;;;2.40;99.90;;;;;;4129194;28;21260;-72
2021/01/09 08:45:09;;;;;;;10.50;6.60;;;2.30;99.90;;;;;;4149321;28;20124;-71
2021/01/09 08:47:10;;;;;;;17.80;10.77;;;2.40;99.90;;;;;;4148693;28;20034;-72
2021/01/09 08:49:27;;;;;;;14.68;8.52;;;2.40;99.90;;;;;;4147831;28;20045;-72
2021/01/09 08:51:29;;;;;;;11.50;7.20;;;2.40;99.90;;;;;;4126540;28;20039;-72
2021/01/09 08:53:54;;;;;;;10.63;6.97;;;2.40;99.90;;;;;;4145911;28;20034;-72
2021/01/09 08:56:03;;;;;;;14.00;8.23;;;2.40;99.90;;;;;;4153387;28;20283;-72
2021/01/09 08:58:07;;;;;;;11.32;6.85;;;2.40;99.90;;;;;;4139347;28;20038;-72
2021/01/09 09:00:09;;;;;;;11.95;7.28;;;2.50;99.90;;;;;;4147239;28;20032;-72
2021/01/09 09:02:16;;;;;;;13.70;7.30;;;2.50;99.90;;;;;;4146017;28;20033;-72
2021/01/09 09:04:18;;;;;;;10.57;6.63;;;2.50;99.90;;;;;;4142922;28;20045;-72
2021/01/09 09:06:21;;;;;;;11.35;7.05;;;2.50;99.90;;;;;;4144591;28;20033;-72
2021/01/09 09:08:27;;;;;;;12.38;7.53;;;2.60;99.90;;;;;;4144122;28;20049;-72
2021/01/09 09:10:31;;;;;;;10.65;6.93;;;2.50;99.90;;;;;;4142915;28;20114;-72
2021/01/09 09:12:32;;;;;;;12.48;7.10;;;2.50;99.90;;;;;;4149325;28;20046;-72
2021/01/09 09:14:33;;;;;;;11.90;6.93;;;2.60;99.90;;;;;;4142389;28;20171;-72
2021/01/09 09:16:35;;;;;;;14.85;7.97;;;2.50;99.90;;;;;;4140733;28;20072;-72
2021/01/09 09:18:37;;;;;;;14.38;7.15;;;2.60;99.90;;;;;;4138465;28;20042;-72
2021/01/09 09:20:38;;;;;;;14.63;6.95;;;2.60;99.90;;;;;;4143023;28;20559;-72
2021/01/09 09:22:41;;;;;;;12.23;7.53;;;2.50;99.90;;;;;;4144887;28;20022;-71
2021/01/09 09:24:43;;;;;;;11.75;7.15;;;2.60;99.90;;;;;;4149902;28;20026;-72
2021/01/09 09:26:44;;;;;;;12.68;7.55;;;2.60;99.90;;;;;;4146584;28;20034;-72
2021/01/09 09:28:45;;;;;;;11.93;6.85;;;2.60;99.90;;;;;;4147103;28;20041;-72
2021/01/09 09:30:46;;;;;;;12.43;6.22;;;2.60;99.90;;;;;;4146428;28;20029;-71
2021/01/09 09:32:46;;;;;;;13.70;7.47;;;2.60;99.90;;;;;;4146129;28;20549;-71
2021/01/09 09:34:47;;;;;;;13.00;7.43;;;2.60;99.90;;;;;;4145218;28;20045;-72
2021/01/09 09:36:47;;;;;;;13.73;7.28;;;2.70;99.90;;;;;;4143803;28;20124;-71
2021/01/09 09:38:48;;;;;;;12.23;7.60;;;2.70;99.90;;;;;;4144138;28;20221;-71
2021/01/09 09:40:49;;;;;;;13.93;8.02;;;2.70;99.90;;;;;;4139613;28;20027;-72
2021/01/09 09:42:50;;;;;;;11.70;7.40;;;2.70;99.90;;;;;;4140313;28;20066;-72
2021/01/09 09:44:50;;;;;;;11.55;7.13;;;2.80;99.90;;;;;;4140516;28;20113;-71
2021/01/09 09:46:53;;;;;;;12.95;7.50;;;2.80;99.90;;;;;;4138432;28;20239;-72
2021/01/09 09:48:58;;;;;;;;;;;2.80;99.90;;;;;;4124660;28;20034;-72
2021/01/09 09:51:09;;;;;;;15.20;8.07;;;2.80;99.90;;;;;;4138346;28;19971;-71
2021/01/09 09:53:10;;;;;;;12.10;7.72;;;2.80;99.90;;;;;;4147163;28;20038;-72
2021/01/09 09:55:10;;;;;;;11.77;7.43;;;2.90;99.90;;;;;;4139665;28;20033;-72
2021/01/09 09:57:22;;;;;;;11.82;7.65;;;2.90;99.90;;;;;;4139727;28;20045;-71
2021/01/09 09:59:28;;;;;;;11.43;6.95;;;2.90;99.90;;;;;;4144942;28;20036;-72
2021/01/09 10:01:29;;;;;;;11.05;7.80;;;2.90;99.90;;;;;;4142342;28;20045;-72
2021/01/09 10:03:37;;;;;;;13.32;8.00;;;2.90;99.90;;;;;;4140382;28;20030;-73
2021/01/09 10:05:38;;;;;;;13.20;8.10;;;2.90;99.90;;;;;;4138492;28;20060;-74
2021/01/09 10:07:39;;;;;;;13.77;8.03;;;2.90;99.90;;;;;;4138912;28;20100;-73
2021/01/09 10:09:40;;;;;;;11.93;7.10;;;3.00;99.90;;;;;;4140115;28;20963;-73
2021/01/09 10:11:41;;;;;;;10.43;6.88;;;3.00;99.90;;;;;;4138817;28;20558;-74
2021/01/09 10:13:42;;;;;;;10.98;7.20;;;3.00;99.90;;;;;;4134086;28;20027;-73
2021/01/09 10:15:42;;;;;;;16.35;9.40;;;3.00;99.90;;;;;;4138135;28;20053;-74
2021/01/09 10:17:43;;;;;;;16.45;9.13;;;3.00;99.90;;;;;;4137194;28;20030;-71
2021/01/09 10:19:44;;;;;;;15.95;8.23;;;3.00;99.90;;;;;;4140389;28;20045;-72
2021/01/09 10:21:45;;;;;;;18.13;9.68;;;3.00;99.90;;;;;;4139307;28;20034;-71
2021/01/09 10:23:46;;;;;;;17.63;9.98;;;3.00;99.90;;;;;;4145396;28;20033;-71
2021/01/09 10:25:46;;;;;;;20.10;11.00;;;3.10;99.90;;;;;;4145555;28;20041;-71
2021/01/09 10:27:47;;;;;;;25.08;13.27;;;3.10;99.90;;;;;;4137386;28;20556;-71
2021/01/09 10:29:48;;;;;;;26.08;12.90;;;3.10;99.90;;;;;;4127183;28;20092;-71
2021/01/09 10:31:48;;;;;;;24.45;12.20;;;3.20;99.90;;;;;;4142400;28;20545;-71
2021/01/09 10:33:49;;;;;;;24.58;12.18;;;3.20;99.90;;;;;;4140827;28;20521;-71
2021/01/09 10:35:49;;;;;;;25.88;12.75;;;3.20;99.90;;;;;;4140406;28;20038;-72
2021/01/09 10:37:50;;;;;;;18.80;10.70;;;3.20;99.90;;;;;;4139505;28;20096;-72
2021/01/09 10:39:51;;;;;;;21.55;10.52;;;3.20;99.90;;;;;;4141071;28;20026;-72
2021/01/09 10:41:51;;;;;;;20.45;11.43;;;3.20;99.90;;;;;;4144138;28;20034;-72
2021/01/09 10:43:53;;;;;;;19.83;11.00;;;3.30;99.90;;;;;;4141060;28;20034;-76